Accueil
METAR-TAF:

METAR-TAF

Aéroports :

Locarno, Suisse

latitude: 46-09-55N, longitude: 8-52-40E, altitude: 198 m

Observation

Le bulletin a été fait il y a 34 minutes, à 05:50 UTC
Vent calme
Température 0°C
Humidité 100%
Pression 1017 hPa
Visibilité: 5000 m
Quelques nuages à une hauteur de 19000 ft
brume

METAR: LSZL 080550Z AUTO 00000KT 5000NDV BR FEW190 M00/M00 Q1017 RMK

Heure: 07:24 (06:24 UTC)

Prévision

Le bulletin a été fait il y a 59 minutes, à 05:25 UTC
Prévision valable du 08 à 06 UTC au 08 à 15 UTC
Vent 2 kt de direction variable
Visibilité: 6000 m
Quelques nuages à une hauteur de 14000 ft
Probabilité 40% :
Temporairement
du 08 à 06 UTC au 08 à 08 UTC
Visibilité: 4000 m
brume
Temporairement
du 08 à 08 UTC au 08 à 13 UTC
Visibilité 10 km ou plus
pas de nuages en-dessous de 1500 mètres et pas de cumulonimbus.

TAF: LSZL 080525Z 0806/0815 VRB02KT 6000 FEW140 PROB40 TEMPO 0806/0808 4000 BR TEMPO 0808/0813 CAVOK

Observations et prévisions météorologiques de plus de 4000 aéroports (messages METAR et TAF).

Les stations disponibles sont représentées par des disques jaunes et rouges sur la carte.

Passer la souris dessus pour voir le nom de la station.

Cliquer dessus pour voir les observations et prévisions météorologiques.

Pour changer de carte: cliquez sur les boutons verts avec une croix noire pour zoomer, sur le bouton vert avec un tiret pour effectuer un zoom arrière, ou sur les flèches vertes pour les cartes adjacentes.


METAR-TAF: